createdAt,value
2022-08-12T00:00:33.828Z,93506.56
2022-08-12T00:06:21.021Z,93504.69
2022-08-12T00:11:59.942Z,93498.94
2022-08-12T00:17:24.190Z,93496.91
2022-08-12T00:23:15.767Z,93479.88
2022-08-12T00:34:23.880Z,93485.28
2022-08-12T00:39:48.624Z,93487.28
2022-08-12T00:45:06.413Z,93489.69
2022-08-12T00:50:19.974Z,93493.22
2022-08-12T00:55:36.430Z,93490.44
2022-08-12T01:01:12.627Z,93479.38
2022-08-12T01:06:45.971Z,93494.72
2022-08-12T01:12:04.787Z,93499.94
2022-08-12T01:17:08.478Z,93500.66
2022-08-12T01:22:51.958Z,93489.56
2022-08-12T01:28:00.544Z,93507.97
2022-08-12T01:33:07.542Z,93503.66
2022-08-12T01:38:14.017Z,93496.28
2022-08-12T01:43:21.892Z,93495.41
2022-08-12T01:48:40.068Z,93502.94
2022-08-12T01:53:57.846Z,93513.69
2022-08-12T01:59:22.522Z,93513.44
2022-08-12T02:05:01.457Z,93499.16
2022-08-12T02:10:50.289Z,93490.91
2022-08-12T02:16:03.747Z,93478.06
2022-08-12T02:21:34.772Z,93467.09
2022-08-12T02:26:41.210Z,93455.34
2022-08-12T02:31:46.137Z,93455.78
2022-08-12T02:36:54.971Z,93447.16
2022-08-12T02:42:00.813Z,93444.31
2022-08-12T02:47:06.658Z,93433.00
2022-08-12T02:52:12.064Z,93427.13
2022-08-12T02:57:20.967Z,93433.81
2022-08-12T03:02:30.722Z,93434.69
2022-08-12T03:07:59.590Z,93428.31
2022-08-12T03:13:26.541Z,93437.31
2022-08-12T03:25:17.866Z,93418.88
2022-08-12T03:30:21.671Z,93426.59
2022-08-12T03:35:41.352Z,93440.81
2022-08-12T03:41:36.647Z,93436.16
2022-08-12T03:47:02.257Z,93452.28
2022-08-12T03:52:25.736Z,93458.97
2022-08-12T03:57:48.693Z,93438.53
2022-08-12T04:03:02.042Z,93430.56
2022-08-12T04:08:10.811Z,93441.03
2022-08-12T04:13:21.627Z,93444.78
2022-08-12T04:18:26.212Z,93438.94
2022-08-12T04:23:32.457Z,93441.56
2022-08-12T04:28:48.295Z,93438.44
2022-08-12T04:33:55.240Z,93428.91
2022-08-12T04:39:00.857Z,93422.28
2022-08-12T04:44:06.554Z,93424.22
2022-08-12T04:49:19.757Z,93428.44
2022-08-12T04:54:25.052Z,93427.47
2022-08-12T04:59:28.531Z,93424.06
2022-08-12T05:04:32.386Z,93423.78
2022-08-12T05:10:00.425Z,93415.03
2022-08-12T05:15:00.897Z,93421.59
2022-08-12T05:20:05.074Z,93426.13
2022-08-12T05:25:12.082Z,93430.78
2022-08-12T05:30:15.818Z,93420.56
2022-08-12T05:35:21.635Z,93413.91
2022-08-12T05:40:29.552Z,93400.22
2022-08-12T05:45:32.739Z,93396.75
2022-08-12T05:50:36.694Z,93404.53
2022-08-12T05:55:42.898Z,93412.41
2022-08-12T06:00:46.417Z,93436.75
2022-08-12T06:05:55.415Z,93438.22
2022-08-12T06:10:59.648Z,93444.09
2022-08-12T06:16:03.387Z,93454.97
2022-08-12T06:21:08.989Z,93435.84
2022-08-12T06:26:16.922Z,93436.22
2022-08-12T06:31:27.959Z,93431.63
2022-08-12T06:36:32.579Z,93442.47
2022-08-12T06:42:05.024Z,93429.53
2022-08-12T06:47:23.326Z,93421.25
2022-08-12T06:52:32.549Z,93412.81
2022-08-12T06:58:06.438Z,93401.06
2022-08-12T07:03:23.022Z,93409.88
2022-08-12T07:08:31.011Z,93400.81
2022-08-12T07:14:12.010Z,93396.81
2022-08-12T07:19:06.825Z,93389.63
2022-08-12T07:24:10.273Z,93387.56
2022-08-12T07:29:15.072Z,93395.25
2022-08-12T07:34:18.107Z,93407.88
2022-08-12T07:39:21.222Z,93406.72
2022-08-12T07:44:25.921Z,93398.50
2022-08-12T07:49:29.892Z,93410.63
2022-08-12T07:54:33.342Z,93420.72
2022-08-12T07:59:37.483Z,93416.69
2022-08-12T08:05:00.982Z,93420.28
2022-08-12T08:10:13.070Z,93426.25
2022-08-12T08:15:17.519Z,93423.03
2022-08-12T08:20:23.683Z,93428.44
2022-08-12T08:25:37.273Z,93423.69
2022-08-12T08:30:44.142Z,93422.09
2022-08-12T08:35:49.643Z,93422.72
2022-08-12T08:41:11.389Z,93427.72
2022-08-12T08:46:14.918Z,93421.88
2022-08-12T08:51:17.964Z,93413.16
2022-08-12T08:56:22.534Z,93424.06
2022-08-12T09:01:26.776Z,93406.56
2022-08-12T09:06:53.602Z,93407.38
2022-08-12T09:12:27.463Z,93415.69
2022-08-12T09:17:42.772Z,93411.06
2022-08-12T09:22:49.059Z,93416.69
2022-08-12T09:28:03.246Z,93420.59
2022-08-12T09:33:18.865Z,93422.63
2022-08-12T09:38:32.254Z,93421.31
2022-08-12T09:44:01.258Z,93433.63
2022-08-12T09:49:16.372Z,93425.16
2022-08-12T09:54:33.597Z,93408.22
2022-08-12T10:00:17.553Z,93409.75
2022-08-12T10:05:03.518Z,93403.06
2022-08-12T10:10:07.506Z,93396.06
2022-08-12T10:16:01.618Z,93388.34
2022-08-12T10:20:52.712Z,93398.50
2022-08-12T10:26:34.179Z,93388.28
2022-08-12T10:31:47.070Z,93402.06
2022-08-12T10:37:22.583Z,93401.34
2022-08-12T10:42:47.875Z,93409.81
2022-08-12T10:48:07.239Z,93415.19
2022-08-12T10:53:20.524Z,93419.75
2022-08-12T10:58:48.839Z,93409.38
2022-08-12T11:04:24.442Z,93412.47
2022-08-12T11:09:41.719Z,93393.78
2022-08-12T11:14:59.499Z,93390.97
2022-08-12T11:20:03.356Z,93381.91
2022-08-12T11:25:11.247Z,93381.34
2022-08-12T11:30:31.515Z,93393.16
2022-08-12T11:35:43.099Z,93421.03
2022-08-12T11:40:46.864Z,93428.47
2022-08-12T11:45:53.320Z,93428.66
2022-08-12T11:50:59.999Z,93432.69
2022-08-12T11:56:06.332Z,93426.59
2022-08-12T12:02:02.602Z,93428.69
2022-08-12T12:06:33.345Z,93427.94
2022-08-12T12:11:48.650Z,93428.34
2022-08-12T12:16:53.242Z,93409.78
2022-08-12T12:21:56.805Z,93419.69
2022-08-12T12:27:01.566Z,93416.97
2022-08-12T12:32:09.238Z,93415.81
2022-08-12T12:37:16.467Z,93401.03
2022-08-12T12:42:44.288Z,93401.72
2022-08-12T12:47:59.721Z,93412.34
2022-08-12T12:53:04.964Z,93405.44
2022-08-12T12:58:16.882Z,93383.13
2022-08-12T13:03:22.150Z,93361.03
2022-08-12T13:08:35.628Z,93379.84
2022-08-12T13:14:09.878Z,93383.69
2022-08-12T13:19:03.545Z,93376.13
2022-08-12T13:24:11.626Z,93374.88
2022-08-12T13:29:15.357Z,93378.16
2022-08-12T13:34:34.360Z,93386.66
2022-08-12T13:39:39.544Z,93366.56
2022-08-12T13:44:44.058Z,93365.97
2022-08-12T13:49:56.318Z,93368.84
2022-08-12T13:54:59.325Z,93385.97
2022-08-12T14:00:03.069Z,93377.47
2022-08-12T14:05:31.555Z,93382.03
2022-08-12T14:10:53.571Z,93388.59
2022-08-12T14:16:03.308Z,93399.63
2022-08-12T14:21:18.272Z,93405.34
2022-08-12T14:26:26.045Z,93408.53
2022-08-12T14:31:34.650Z,93408.22
2022-08-12T14:36:38.472Z,93407.34
2022-08-12T14:41:57.010Z,93405.09
2022-08-12T14:47:01.000Z,93416.06
2022-08-12T14:52:56.472Z,93402.38
2022-08-12T14:57:56.442Z,93406.13
2022-08-12T15:03:03.608Z,93396.28
2022-08-12T15:08:17.083Z,93402.91
2022-08-12T15:13:26.004Z,93396.72
2022-08-12T15:18:31.036Z,93381.78
2022-08-12T15:23:45.731Z,93391.28
2022-08-12T15:28:59.310Z,93387.53
2022-08-12T15:34:03.969Z,93391.47
2022-08-12T15:39:17.185Z,93386.09
2022-08-12T15:44:37.965Z,93384.19
2022-08-12T15:49:54.498Z,93384.81
2022-08-12T15:55:05.905Z,93394.44
2022-08-12T16:00:29.022Z,93388.50
2022-08-12T16:06:19.531Z,93387.59
2022-08-12T16:11:07.361Z,93383.16
2022-08-12T16:16:23.644Z,93364.75
2022-08-12T16:21:51.789Z,93389.56
2022-08-12T16:26:54.062Z,93383.69
2022-08-12T16:31:59.696Z,93393.28
2022-08-12T16:37:09.078Z,93397.81
2022-08-12T16:42:13.740Z,93393.88
2022-08-12T16:47:18.752Z,93391.41
2022-08-12T16:52:22.358Z,93376.81
2022-08-12T16:57:34.935Z,93392.22
2022-08-12T17:02:40.590Z,93395.44
2022-08-12T17:07:52.129Z,93400.25
2022-08-12T17:12:56.422Z,93404.78
2022-08-12T17:18:39.587Z,93417.31
2022-08-12T17:23:47.850Z,93415.38
2022-08-12T17:28:54.037Z,93416.38
2022-08-12T17:33:58.836Z,93416.00
2022-08-12T17:39:04.462Z,93432.59
2022-08-12T17:44:15.080Z,93433.59
2022-08-12T17:50:02.209Z,93445.72
2022-08-12T17:54:46.521Z,93452.38
2022-08-12T17:59:51.526Z,93437.94
2022-08-12T18:05:09.828Z,93451.41
2022-08-12T18:10:42.682Z,93453.44
2022-08-12T18:16:05.819Z,93449.50
2022-08-12T18:21:11.308Z,93448.34
2022-08-12T18:26:23.841Z,93458.75
2022-08-12T18:31:44.494Z,93456.63
2022-08-12T18:37:21.330Z,93466.25
2022-08-12T18:42:28.693Z,93465.34
2022-08-12T18:47:46.800Z,93457.88
2022-08-12T18:52:55.827Z,93472.09
2022-08-12T18:58:07.963Z,93468.28
2022-08-12T19:03:23.515Z,93474.69
2022-08-12T19:08:43.091Z,93483.47
2022-08-12T19:14:10.161Z,93494.78
2022-08-12T19:19:17.362Z,93492.03
2022-08-12T19:24:48.853Z,93482.81
2022-08-12T19:30:06.822Z,93489.19
2022-08-12T19:40:38.915Z,93494.28
2022-08-12T19:45:50.584Z,93472.22
2022-08-12T19:50:56.252Z,93505.34
2022-08-12T19:56:00.041Z,93500.91
2022-08-12T20:01:21.573Z,93496.94
2022-08-12T20:06:29.273Z,93493.56
2022-08-12T20:12:10.198Z,93511.63
2022-08-12T20:17:01.994Z,93497.84
2022-08-12T20:22:08.899Z,93501.88
2022-08-12T20:27:28.741Z,93492.91
2022-08-12T20:32:55.329Z,93509.59
2022-08-12T20:38:05.130Z,93504.06
2022-08-12T20:43:15.596Z,93514.38
2022-08-12T20:48:25.308Z,93487.41
2022-08-12T20:53:54.165Z,93493.41
2022-08-12T20:58:55.421Z,93487.91
2022-08-12T21:04:19.748Z,93497.69
2022-08-12T21:09:27.981Z,93498.69
2022-08-12T21:14:39.776Z,93511.81
2022-08-12T21:20:04.946Z,93505.22
2022-08-12T21:25:17.171Z,93508.53
2022-08-12T21:30:20.907Z,93526.75
2022-08-12T21:35:30.706Z,93522.91
2022-08-12T21:40:52.902Z,93525.34
2022-08-12T21:46:01.345Z,93523.91
2022-08-12T21:51:08.842Z,93524.03
2022-08-12T21:56:34.903Z,93516.94
2022-08-12T22:01:48.561Z,93526.16
2022-08-12T22:06:53.866Z,93521.53
2022-08-12T22:12:20.587Z,93523.97
2022-08-12T22:17:50.368Z,93513.00
2022-08-12T22:23:00.472Z,93509.16
2022-08-12T22:28:26.977Z,93500.88
2022-08-12T22:33:54.089Z,93496.22
2022-08-12T22:39:03.536Z,93497.84
2022-08-12T22:44:27.783Z,93482.06
2022-08-12T22:49:37.009Z,93485.75
2022-08-12T22:55:02.510Z,93484.41
2022-08-12T23:00:24.048Z,93492.41
2022-08-12T23:06:10.011Z,93482.59
2022-08-12T23:11:06.029Z,93482.63
2022-08-12T23:16:27.928Z,93474.59
2022-08-12T23:22:04.465Z,93452.34
2022-08-12T23:27:18.253Z,93447.88
2022-08-12T23:32:36.114Z,93427.56
2022-08-12T23:37:47.126Z,93434.38
2022-08-12T23:42:58.135Z,93444.50
2022-08-12T23:48:02.594Z,93434.78
2022-08-12T23:53:22.401Z,93438.06
2022-08-12T23:58:31.138Z,93446.81
